createdAt,value
2019-03-30T00:01:17.362Z,13.23
2019-03-30T00:03:48.810Z,13.60
2019-03-30T00:06:20.130Z,12.18
2019-03-30T00:08:51.477Z,12.10
2019-03-30T00:11:22.789Z,11.97
2019-03-30T00:13:54.169Z,13.83
2019-03-30T00:16:25.485Z,13.05
2019-03-30T00:18:56.784Z,15.23
2019-03-30T00:21:28.077Z,12.05
2019-03-30T00:24:03.782Z,13.45
2019-03-30T00:26:36.105Z,16.00
2019-03-30T00:29:07.439Z,13.40
2019-03-30T00:31:38.872Z,13.10
2019-03-30T00:34:10.132Z,15.70
2019-03-30T00:36:41.554Z,15.75
2019-03-30T00:39:12.936Z,14.55
2019-03-30T00:41:44.198Z,16.52
2019-03-30T00:44:15.603Z,14.85
2019-03-30T00:46:47.225Z,17.65
2019-03-30T00:49:18.599Z,16.50
2019-03-30T00:51:50.019Z,17.77
2019-03-30T00:54:22.644Z,14.63
2019-03-30T00:56:53.870Z,15.93
2019-03-30T00:59:25.117Z,14.28
2019-03-30T01:01:56.423Z,13.50
2019-03-30T01:04:27.787Z,13.83
2019-03-30T01:06:59.106Z,13.48
2019-03-30T01:09:30.510Z,14.23
2019-03-30T01:12:01.875Z,13.20
2019-03-30T01:14:33.283Z,11.67
2019-03-30T01:17:04.912Z,11.73
2019-03-30T01:19:36.193Z,15.63
2019-03-30T01:22:07.504Z,13.53
2019-03-30T01:24:38.873Z,13.43
2019-03-30T01:27:10.147Z,14.83
2019-03-30T01:29:41.469Z,14.90
2019-03-30T01:32:12.870Z,13.78
2019-03-30T01:34:44.405Z,11.13
2019-03-30T01:37:15.723Z,13.53
2019-03-30T01:39:47.223Z,14.13
2019-03-30T01:42:18.487Z,13.35
2019-03-30T01:44:49.973Z,14.43
2019-03-30T01:47:21.442Z,13.50
2019-03-30T01:49:54.475Z,11.53
2019-03-30T01:52:25.738Z,15.03
2019-03-30T01:54:57.001Z,12.90
2019-03-30T01:57:28.513Z,12.40
2019-03-30T02:00:00.785Z,14.15
2019-03-30T02:02:32.540Z,14.10
2019-03-30T02:05:04.647Z,12.57
2019-03-30T02:07:35.994Z,15.58
2019-03-30T02:10:08.973Z,14.50
2019-03-30T02:12:40.368Z,13.23
2019-03-30T02:15:11.953Z,11.87
2019-03-30T02:17:43.266Z,15.27
2019-03-30T02:20:30.591Z,11.67
2019-03-30T02:22:54.916Z,11.93
2019-03-30T02:25:26.183Z,13.57
2019-03-30T02:27:57.572Z,14.43
2019-03-30T02:30:28.919Z,12.43
2019-03-30T02:33:00.329Z,13.47
2019-03-30T02:35:31.653Z,13.03
2019-03-30T02:38:03.230Z,11.63
2019-03-30T02:40:34.562Z,11.83
2019-03-30T02:43:06.173Z,11.83
2019-03-30T02:45:37.527Z,12.03
2019-03-30T02:48:09.047Z,12.87
2019-03-30T02:50:49.509Z,11.90
2019-03-30T02:53:13.519Z,13.53
2019-03-30T02:55:44.845Z,13.77
2019-03-30T02:58:16.226Z,13.93
2019-03-30T03:00:47.614Z,12.47
2019-03-30T03:03:19.217Z,13.50
2019-03-30T03:05:50.645Z,13.83
2019-03-30T03:08:22.318Z,15.07
2019-03-30T03:10:53.770Z,13.33
2019-03-30T03:13:25.111Z,17.53
2019-03-30T03:15:56.376Z,13.30
2019-03-30T03:18:27.759Z,13.63
2019-03-30T03:21:07.423Z,11.73
2019-03-30T03:23:32.154Z,12.50
2019-03-30T03:26:03.583Z,14.27
2019-03-30T03:28:35.052Z,13.00
2019-03-30T03:31:06.382Z,10.97
2019-03-30T03:33:37.848Z,11.60
2019-03-30T03:36:09.334Z,13.73
2019-03-30T03:38:40.686Z,10.63
2019-03-30T03:41:13.003Z,9.47
2019-03-30T03:43:44.389Z,11.93
2019-03-30T03:46:15.729Z,9.80
2019-03-30T03:48:47.173Z,9.50
2019-03-30T03:51:26.155Z,12.23
2019-03-30T03:53:53.863Z,10.47
2019-03-30T03:56:27.030Z,10.97
2019-03-30T03:58:58.577Z,10.73
2019-03-30T04:01:31.767Z,10.70
2019-03-30T04:04:04.471Z,13.30
2019-03-30T04:06:39.147Z,10.63
2019-03-30T04:09:10.527Z,10.80
2019-03-30T04:11:44.058Z,11.30
2019-03-30T04:14:18.020Z,9.93
2019-03-30T04:16:49.386Z,11.50
2019-03-30T04:19:20.791Z,11.27
2019-03-30T04:21:52.117Z,9.33
2019-03-30T04:24:23.377Z,13.87
2019-03-30T04:26:54.722Z,14.77
2019-03-30T04:29:26.056Z,14.70
2019-03-30T04:31:57.376Z,11.10
2019-03-30T04:34:28.688Z,11.90
2019-03-30T04:36:59.995Z,11.60
2019-03-30T04:39:31.380Z,13.93
2019-03-30T04:42:02.913Z,12.60
2019-03-30T04:44:34.255Z,10.53
2019-03-30T04:47:06.131Z,11.87
2019-03-30T04:49:37.898Z,13.47
2019-03-30T04:52:11.714Z,12.27
2019-03-30T04:54:43.206Z,13.13
2019-03-30T04:57:14.613Z,11.83
2019-03-30T05:00:14.738Z,14.27
2019-03-30T05:02:48.533Z,11.27
2019-03-30T05:05:19.840Z,11.87
2019-03-30T05:07:51.294Z,12.70
2019-03-30T05:10:22.593Z,16.20
2019-03-30T05:12:53.917Z,16.23
2019-03-30T05:15:25.436Z,17.20
2019-03-30T05:17:56.832Z,15.33
2019-03-30T05:20:28.220Z,15.47
2019-03-30T05:22:59.791Z,15.73
2019-03-30T05:25:31.128Z,13.77
2019-03-30T05:28:02.573Z,16.17
2019-03-30T05:30:33.900Z,16.40
2019-03-30T05:33:06.992Z,14.27
2019-03-30T05:35:39.551Z,16.33
2019-03-30T05:38:10.945Z,14.93
2019-03-30T05:40:42.228Z,17.03
2019-03-30T05:43:13.530Z,13.30
2019-03-30T05:45:44.898Z,13.77
2019-03-30T05:48:16.199Z,14.77
2019-03-30T05:50:47.926Z,16.53
2019-03-30T05:53:19.226Z,12.30
2019-03-30T05:55:50.700Z,13.63
2019-03-30T05:58:22.058Z,11.30
2019-03-30T06:00:53.438Z,12.10
2019-03-30T06:03:24.909Z,12.20
2019-03-30T06:06:00.860Z,14.67
2019-03-30T06:08:32.165Z,14.90
2019-03-30T06:11:03.427Z,15.87
2019-03-30T06:13:34.709Z,20.10
2019-03-30T06:16:06.149Z,18.27
2019-03-30T06:18:38.515Z,15.63
2019-03-30T06:21:10.089Z,19.37
2019-03-30T06:23:41.490Z,15.40
2019-03-30T06:26:14.553Z,17.67
2019-03-30T06:28:46.018Z,21.17
2019-03-30T06:31:17.409Z,15.93
2019-03-30T06:33:49.771Z,16.17
2019-03-30T06:36:21.011Z,17.83
2019-03-30T06:38:52.463Z,19.23
2019-03-30T06:41:24.894Z,17.63
2019-03-30T06:43:56.249Z,22.23
2019-03-30T06:46:31.097Z,24.17
2019-03-30T06:49:02.539Z,20.13
2019-03-30T06:51:33.834Z,25.30
2019-03-30T06:54:08.281Z,24.23
2019-03-30T06:56:39.519Z,29.40
2019-03-30T06:59:10.816Z,23.57
2019-03-30T07:01:42.519Z,25.23
2019-03-30T07:04:15.541Z,25.73
2019-03-30T07:06:47.620Z,26.93
2019-03-30T07:09:21.935Z,23.15
2019-03-30T07:11:56.262Z,25.65
2019-03-30T07:14:32.419Z,23.10
2019-03-30T07:17:05.624Z,23.00
2019-03-30T07:19:40.331Z,25.80
2019-03-30T07:22:11.883Z,24.12
2019-03-30T07:24:43.404Z,22.63
2019-03-30T07:27:18.338Z,21.82
2019-03-30T07:29:49.698Z,22.23
2019-03-30T07:32:21.101Z,21.93
2019-03-30T07:34:52.476Z,23.52
2019-03-30T07:37:23.709Z,22.17
2019-03-30T07:39:55.108Z,22.20
2019-03-30T07:42:26.586Z,24.92
2019-03-30T07:44:59.913Z,22.77
2019-03-30T07:47:32.861Z,24.15
2019-03-30T07:50:08.926Z,23.43
2019-03-30T07:52:40.355Z,21.73
2019-03-30T07:55:11.944Z,25.70
2019-03-30T07:57:43.392Z,21.57
2019-03-30T08:00:15.690Z,21.77
2019-03-30T08:02:46.922Z,24.70
2019-03-30T08:05:18.308Z,21.93
2019-03-30T08:07:49.798Z,25.97
2019-03-30T08:10:21.241Z,21.95
2019-03-30T08:12:52.700Z,23.98
2019-03-30T08:15:24.191Z,20.00
2019-03-30T08:17:55.543Z,23.57
2019-03-30T08:20:28.351Z,23.57
2019-03-30T08:22:59.589Z,22.40
2019-03-30T08:25:31.053Z,25.12
2019-03-30T08:28:02.493Z,24.30
2019-03-30T08:30:33.810Z,22.30
2019-03-30T08:33:05.113Z,23.98
2019-03-30T08:35:36.425Z,22.82
2019-03-30T08:38:07.669Z,22.90
2019-03-30T08:40:38.916Z,24.57
2019-03-30T08:43:10.299Z,21.05
2019-03-30T08:45:41.589Z,22.52
2019-03-30T08:48:13.035Z,44.85
2019-03-30T08:50:44.558Z,21.05
2019-03-30T08:53:17.622Z,20.48
2019-03-30T08:55:51.011Z,20.08
2019-03-30T08:58:22.609Z,19.27
2019-03-30T09:00:53.859Z,18.20
2019-03-30T09:03:25.125Z,20.77
2019-03-30T09:05:57.001Z,18.75
2019-03-30T09:08:28.317Z,19.17
2019-03-30T09:10:59.863Z,21.42
2019-03-30T09:13:31.604Z,21.33
2019-03-30T09:16:03.072Z,21.35
2019-03-30T09:18:34.368Z,20.10
2019-03-30T09:21:06.107Z,19.50
2019-03-30T09:23:37.493Z,21.20
2019-03-30T09:26:08.892Z,20.23
2019-03-30T09:28:40.856Z,21.82
2019-03-30T09:31:12.219Z,21.60
2019-03-30T09:33:43.691Z,20.30
2019-03-30T09:36:15.156Z,18.60
2019-03-30T09:38:47.682Z,18.82
2019-03-30T09:41:19.083Z,21.17
2019-03-30T09:43:50.533Z,18.35
2019-03-30T09:46:21.800Z,16.35
2019-03-30T09:48:53.037Z,19.30
2019-03-30T09:51:24.491Z,18.92
2019-03-30T09:53:55.959Z,17.30
2019-03-30T09:56:27.224Z,21.35
2019-03-30T09:58:58.626Z,17.90
2019-03-30T10:01:30.107Z,20.25
2019-03-30T10:04:02.471Z,18.65
2019-03-30T10:06:34.814Z,16.67
2019-03-30T10:09:07.529Z,18.32
2019-03-30T10:11:38.859Z,16.80
2019-03-30T10:14:10.366Z,19.70
2019-03-30T10:16:43.709Z,16.93
2019-03-30T10:19:14.962Z,17.95
2019-03-30T10:21:46.467Z,16.27
2019-03-30T10:24:17.930Z,17.60
2019-03-30T10:26:49.324Z,19.30
2019-03-30T10:29:20.718Z,19.37
2019-03-30T10:31:51.967Z,20.27
2019-03-30T10:34:24.467Z,17.73
2019-03-30T10:36:55.792Z,18.52
2019-03-30T10:39:27.066Z,17.82
2019-03-30T10:41:58.383Z,19.55
2019-03-30T10:44:29.673Z,17.20
2019-03-30T10:47:01.120Z,16.97
2019-03-30T10:49:32.518Z,15.78
2019-03-30T10:52:03.957Z,17.87
2019-03-30T10:54:35.359Z,18.07
2019-03-30T10:57:10.126Z,15.20
2019-03-30T10:59:47.504Z,14.87
2019-03-30T11:02:19.053Z,15.00
2019-03-30T11:04:50.286Z,16.00
2019-03-30T11:07:23.554Z,21.20
2019-03-30T11:09:55.324Z,15.08
2019-03-30T11:12:28.215Z,14.45
2019-03-30T11:14:59.885Z,16.07
2019-03-30T11:17:31.210Z,16.30
2019-03-30T11:20:02.608Z,15.18
2019-03-30T11:22:33.973Z,14.33
2019-03-30T11:25:08.502Z,14.50
2019-03-30T11:27:40.019Z,15.75
2019-03-30T11:30:11.413Z,19.00
2019-03-30T11:32:42.786Z,16.55
2019-03-30T11:35:14.047Z,18.60
2019-03-30T11:37:45.387Z,15.63
2019-03-30T11:40:22.581Z,14.73
2019-03-30T11:42:55.924Z,13.75
2019-03-30T11:45:27.306Z,16.15
2019-03-30T11:47:58.873Z,12.68
2019-03-30T11:50:30.194Z,14.75
2019-03-30T11:53:01.624Z,12.75
2019-03-30T11:55:32.942Z,13.08
2019-03-30T11:58:04.307Z,13.25
2019-03-30T12:00:35.649Z,15.25
2019-03-30T12:03:08.740Z,13.30
2019-03-30T12:05:42.113Z,12.43
2019-03-30T12:08:13.517Z,13.38
2019-03-30T12:10:50.995Z,13.48
2019-03-30T12:13:22.651Z,14.20
2019-03-30T12:15:53.966Z,11.68
2019-03-30T12:18:25.456Z,10.70
2019-03-30T12:20:56.803Z,8.55
2019-03-30T12:23:28.321Z,9.35
2019-03-30T12:25:59.566Z,9.93
2019-03-30T12:28:32.579Z,10.18
2019-03-30T12:31:03.901Z,9.55
2019-03-30T12:33:35.197Z,13.03
2019-03-30T12:36:06.583Z,11.03
2019-03-30T12:38:38.036Z,8.95
2019-03-30T12:41:09.413Z,8.10
2019-03-30T12:43:40.726Z,7.67
2019-03-30T12:46:12.091Z,5.47
2019-03-30T12:48:43.578Z,6.10
2019-03-30T12:51:14.950Z,7.15
2019-03-30T12:53:50.402Z,9.58
2019-03-30T12:56:20.913Z,7.47
2019-03-30T12:58:52.158Z,8.05
2019-03-30T13:01:23.635Z,8.85
2019-03-30T13:03:55.973Z,7.00
2019-03-30T13:06:27.283Z,9.20
2019-03-30T13:08:58.638Z,7.35
2019-03-30T13:11:29.966Z,7.10
2019-03-30T13:14:01.422Z,5.87
2019-03-30T13:16:32.943Z,10.48
2019-03-30T13:19:04.328Z,7.12
2019-03-30T13:21:35.630Z,8.73
2019-03-30T13:24:07.097Z,6.62
2019-03-30T13:26:38.494Z,8.45
2019-03-30T13:29:09.868Z,9.80
2019-03-30T13:31:42.093Z,10.28
2019-03-30T13:34:19.473Z,6.87
2019-03-30T13:36:50.957Z,11.18
2019-03-30T13:39:22.310Z,7.10
2019-03-30T13:41:53.698Z,6.42
2019-03-30T13:44:34.209Z,5.45
2019-03-30T13:47:05.652Z,7.58
2019-03-30T13:49:38.039Z,8.58
2019-03-30T13:52:11.358Z,6.97
2019-03-30T13:54:42.801Z,4.78
2019-03-30T13:57:15.068Z,5.83
2019-03-30T13:59:52.994Z,5.28
2019-03-30T14:02:28.521Z,6.53
2019-03-30T14:05:00.006Z,6.05
2019-03-30T14:07:32.913Z,4.10
2019-03-30T14:10:08.824Z,3.87
2019-03-30T14:12:40.290Z,8.68
2019-03-30T14:22:43.970Z,5.47
2019-03-30T14:25:22.099Z,4.22
2019-03-30T14:27:53.502Z,6.20
2019-03-30T14:30:25.105Z,3.75
2019-03-30T14:32:56.628Z,5.40
2019-03-30T14:35:29.700Z,5.08
2019-03-30T14:38:29.416Z,5.05
2019-03-30T14:41:04.000Z,6.00
2019-03-30T14:43:35.565Z,12.65
2019-03-30T14:46:09.591Z,10.10
2019-03-30T14:48:40.513Z,5.92
2019-03-30T14:51:15.899Z,6.90
2019-03-30T14:53:47.876Z,5.03
2019-03-30T14:56:19.119Z,4.85
2019-03-30T14:58:50.594Z,4.30
2019-03-30T15:01:25.297Z,3.98
2019-03-30T15:03:57.002Z,3.55
2019-03-30T15:06:29.567Z,4.72
2019-03-30T15:09:05.175Z,4.20
2019-03-30T15:11:38.085Z,5.85
2019-03-30T15:14:12.426Z,5.78
2019-03-30T15:16:43.739Z,3.90
2019-03-30T15:19:15.050Z,5.05
2019-03-30T15:21:46.391Z,4.50
2019-03-30T15:24:17.753Z,5.42
2019-03-30T15:26:59.697Z,4.55
2019-03-30T15:29:25.357Z,3.55
2019-03-30T15:31:56.755Z,5.25
2019-03-30T15:34:28.036Z,4.30
2019-03-30T15:36:59.357Z,3.55
2019-03-30T15:39:37.197Z,4.75
2019-03-30T15:42:08.601Z,5.22
2019-03-30T15:44:40.784Z,4.50
2019-03-30T15:47:12.315Z,4.92
2019-03-30T15:49:43.948Z,4.35
2019-03-30T15:52:15.584Z,4.33
2019-03-30T15:54:48.949Z,5.65
2019-03-30T15:57:20.319Z,3.20
2019-03-30T15:59:53.268Z,3.72
2019-03-30T16:02:25.622Z,5.58
2019-03-30T16:04:56.980Z,4.17
2019-03-30T16:07:29.298Z,3.70
2019-03-30T16:10:03.986Z,3.22
2019-03-30T16:12:35.483Z,5.37
2019-03-30T16:15:07.859Z,5.35
2019-03-30T16:17:40.930Z,3.67
2019-03-30T16:20:13.235Z,4.87
2019-03-30T16:22:46.185Z,4.80
2019-03-30T16:25:21.256Z,3.58
2019-03-30T16:27:52.493Z,5.15
2019-03-30T16:30:27.136Z,4.12
2019-03-30T16:32:58.466Z,5.90
2019-03-30T16:35:31.123Z,5.62
2019-03-30T16:38:02.605Z,4.33
2019-03-30T16:40:34.267Z,5.83
2019-03-30T16:43:08.688Z,7.10
2019-03-30T16:45:40.285Z,5.37
2019-03-30T16:48:14.628Z,3.98
2019-03-30T16:50:46.653Z,4.42
2019-03-30T16:53:18.137Z,4.30
2019-03-30T16:55:49.684Z,6.28
2019-03-30T16:58:21.037Z,4.53
2019-03-30T17:00:56.790Z,9.05
2019-03-30T17:03:25.746Z,7.15
2019-03-30T17:06:01.220Z,3.77
2019-03-30T17:08:32.499Z,4.42
2019-03-30T17:11:04.032Z,2.98
2019-03-30T17:13:35.264Z,5.62
2019-03-30T17:16:07.485Z,4.35
2019-03-30T17:18:39.083Z,2.47
2019-03-30T17:21:10.538Z,3.22
2019-03-30T17:23:41.879Z,4.42
2019-03-30T17:26:16.980Z,3.15
2019-03-30T17:28:48.440Z,17.57
2019-03-30T17:31:24.180Z,9.13
2019-03-30T17:33:55.433Z,26.82
2019-03-30T17:36:29.350Z,20.27
2019-03-30T17:39:04.026Z,6.95
2019-03-30T17:41:38.126Z,8.38
2019-03-30T17:44:09.702Z,5.40
2019-03-30T17:47:01.629Z,5.78
2019-03-30T17:49:32.063Z,6.78
2019-03-30T17:52:12.575Z,7.30
2019-03-30T17:58:30.058Z,19.32
2019-03-30T18:01:01.659Z,17.87
2019-03-30T18:03:33.131Z,13.18
2019-03-30T18:06:10.005Z,8.68
2019-03-30T18:08:49.605Z,6.10
2019-03-30T18:11:36.781Z,5.47
2019-03-30T18:14:08.015Z,9.68
2019-03-30T18:16:41.037Z,22.45
2019-03-30T18:22:34.368Z,9.08
2019-03-30T18:25:17.499Z,8.38
2019-03-30T18:27:55.639Z,12.28
2019-03-30T18:30:40.908Z,19.30
2019-03-30T18:33:12.296Z,15.10
2019-03-30T18:35:45.386Z,22.77
2019-03-30T18:38:17.596Z,14.55
2019-03-30T18:40:57.242Z,25.82
2019-03-30T18:43:42.510Z,23.95
2019-03-30T18:46:21.540Z,12.15
2019-03-30T18:48:53.003Z,11.35
2019-03-30T18:51:28.264Z,10.08
2019-03-30T18:54:02.299Z,11.50
2019-03-30T18:56:33.700Z,8.35
2019-03-30T18:59:05.104Z,8.75
2019-03-30T19:01:44.239Z,6.20
2019-03-30T19:04:16.076Z,5.87
2019-03-30T19:06:52.506Z,7.62
2019-03-30T19:09:24.030Z,9.10
2019-03-30T19:11:55.461Z,9.33
2019-03-30T19:14:27.055Z,9.10
2019-03-30T19:16:58.459Z,9.70
2019-03-30T19:19:34.889Z,8.70
2019-03-30T19:22:06.212Z,6.33
2019-03-30T19:24:37.622Z,5.17
2019-03-30T19:27:09.019Z,8.05
2019-03-30T19:29:40.680Z,8.63
2019-03-30T19:32:12.283Z,11.08
2019-03-30T19:34:43.809Z,15.05
2019-03-30T19:37:15.209Z,14.03
2019-03-30T19:39:49.350Z,13.88
2019-03-30T19:42:20.968Z,10.40
2019-03-30T19:44:54.031Z,8.05
2019-03-30T19:47:25.766Z,12.78
2019-03-30T19:49:57.286Z,18.92
2019-03-30T19:52:39.722Z,27.70
2019-03-30T19:55:02.158Z,19.12
2019-03-30T19:57:35.429Z,16.93
2019-03-30T20:00:12.784Z,10.15
2019-03-30T20:02:44.563Z,6.67
2019-03-30T20:05:16.860Z,6.22
2019-03-30T20:07:48.408Z,7.60
2019-03-30T20:10:20.208Z,15.78
2019-03-30T20:12:51.498Z,11.78
2019-03-30T20:15:22.963Z,10.00
2019-03-30T20:17:54.366Z,9.95
2019-03-30T20:20:25.965Z,19.55
2019-03-30T20:22:57.341Z,17.12
2019-03-30T20:25:28.733Z,11.73
2019-03-30T20:27:59.997Z,16.40
2019-03-30T20:30:31.484Z,13.45
2019-03-30T20:33:02.749Z,10.85
2019-03-30T20:35:36.152Z,15.13
2019-03-30T20:38:07.544Z,18.35
2019-03-30T20:40:40.174Z,16.82
2019-03-30T20:43:12.500Z,15.58
2019-03-30T20:45:43.899Z,17.37
2019-03-30T20:48:15.221Z,13.25
2019-03-30T20:50:46.675Z,13.72
2019-03-30T20:53:18.006Z,13.85
2019-03-30T20:55:49.384Z,11.10
2019-03-30T20:58:20.711Z,9.38
2019-03-30T21:00:52.171Z,10.90
2019-03-30T21:03:23.837Z,10.32
2019-03-30T21:05:55.601Z,13.00
2019-03-30T21:08:26.861Z,11.15
2019-03-30T21:10:58.305Z,10.18
2019-03-30T21:13:29.686Z,10.13
2019-03-30T21:16:01.215Z,8.70
2019-03-30T21:18:32.534Z,12.00
2019-03-30T21:21:03.900Z,12.53
2019-03-30T21:23:35.763Z,18.30
2019-03-30T21:26:08.222Z,19.52
2019-03-30T21:28:39.635Z,18.17
2019-03-30T21:31:11.024Z,17.42
2019-03-30T21:33:42.348Z,17.27
2019-03-30T21:36:13.712Z,18.50
2019-03-30T21:38:44.972Z,18.92
2019-03-30T21:41:16.274Z,19.45
2019-03-30T21:43:47.640Z,18.32
2019-03-30T21:46:19.210Z,17.05
2019-03-30T21:48:54.493Z,17.57
2019-03-30T21:51:28.628Z,16.10
2019-03-30T21:53:59.863Z,16.90
2019-03-30T21:56:31.307Z,21.17
2019-03-30T21:59:02.745Z,18.42
2019-03-30T22:01:34.182Z,18.17
2019-03-30T22:04:06.487Z,11.93
2019-03-30T22:06:38.318Z,15.13
2019-03-30T22:09:10.271Z,13.32
2019-03-30T22:11:41.706Z,15.85
2019-03-30T22:14:13.510Z,15.30
2019-03-30T22:16:44.882Z,13.72
2019-03-30T22:19:16.225Z,14.35
2019-03-30T22:21:47.505Z,14.63
2019-03-30T22:24:18.888Z,14.55
2019-03-30T22:26:50.253Z,14.63
2019-03-30T22:29:22.746Z,14.45
2019-03-30T22:31:55.060Z,15.38
2019-03-30T22:34:28.366Z,16.12
2019-03-30T22:36:59.752Z,13.78
2019-03-30T22:39:31.015Z,15.28
2019-03-30T22:42:02.313Z,14.75
2019-03-30T22:44:33.602Z,14.65
2019-03-30T22:47:05.651Z,13.50
2019-03-30T22:49:37.975Z,13.53
2019-03-30T22:52:10.936Z,11.38
2019-03-30T22:54:42.226Z,12.33
2019-03-30T22:57:13.658Z,11.15
2019-03-30T22:59:45.053Z,9.85
2019-03-30T23:02:16.533Z,12.00
2019-03-30T23:04:47.912Z,10.35
2019-03-30T23:07:19.342Z,11.57
2019-03-30T23:09:50.627Z,15.20
2019-03-30T23:12:21.954Z,9.08
2019-03-30T23:14:54.784Z,13.30
2019-03-30T23:17:26.337Z,11.73
2019-03-30T23:19:57.762Z,12.15
2019-03-30T23:22:30.593Z,12.65
2019-03-30T23:25:01.838Z,12.55
2019-03-30T23:27:33.467Z,13.13
2019-03-30T23:30:07.682Z,13.50
2019-03-30T23:32:39.268Z,11.93
2019-03-30T23:35:10.840Z,10.93
2019-03-30T23:37:43.800Z,12.10
2019-03-30T23:40:15.253Z,12.63
2019-03-30T23:42:46.682Z,11.20
2019-03-30T23:45:18.150Z,11.28
2019-03-30T23:47:49.699Z,12.13
2019-03-30T23:50:20.931Z,10.70
2019-03-30T23:52:52.354Z,11.45
2019-03-30T23:55:23.609Z,13.25
2019-03-30T23:57:54.971Z,18.45
